createdAt,value
2022-10-17T03:46:19.295Z,15.52
2022-10-17T03:49:22.918Z,19.08
2022-10-17T03:52:26.216Z,18.98
2022-10-17T03:55:29.599Z,20.08
2022-10-17T03:58:31.896Z,16.43
2022-10-17T04:01:36.300Z,16.05
2022-10-17T04:04:38.968Z,17.17
2022-10-17T04:07:41.478Z,20.00
2022-10-17T04:10:45.033Z,16.55
2022-10-17T04:13:47.865Z,16.55
2022-10-17T04:16:50.518Z,18.85
2022-10-17T04:19:53.586Z,18.67
2022-10-17T04:22:58.056Z,15.77
2022-10-17T04:26:01.833Z,14.63
2022-10-17T04:29:05.021Z,12.37
2022-10-17T04:32:07.431Z,14.52
2022-10-17T04:35:10.245Z,16.85
2022-10-17T04:38:13.364Z,21.02
2022-10-17T04:41:18.350Z,15.67
2022-10-17T04:44:20.821Z,15.35
2022-10-17T04:47:24.130Z,19.85
2022-10-17T04:50:26.640Z,15.70
2022-10-17T04:53:39.539Z,14.07
2022-10-17T04:56:42.019Z,17.87
2022-10-17T04:59:44.921Z,16.17
2022-10-17T05:02:47.836Z,16.40
2022-10-17T05:05:50.492Z,18.77
2022-10-17T05:08:53.111Z,19.03
2022-10-17T05:11:56.004Z,17.73
2022-10-17T05:14:58.296Z,17.55
2022-10-17T05:18:02.600Z,18.33
2022-10-17T05:21:05.723Z,19.85
2022-10-17T05:24:10.910Z,16.30
2022-10-17T05:27:13.540Z,17.33
2022-10-17T05:30:16.895Z,17.40
2022-10-17T05:33:19.589Z,16.73
2022-10-17T05:36:22.597Z,27.93
2022-10-17T05:39:25.238Z,27.70
2022-10-17T05:42:28.634Z,27.83
2022-10-17T05:45:33.186Z,19.73
2022-10-17T05:48:37.199Z,23.50
2022-10-17T05:51:41.064Z,22.08
2022-10-17T05:57:46.589Z,16.35
2022-10-17T06:00:49.598Z,14.80
2022-10-17T06:03:52.383Z,23.65
2022-10-17T06:09:59.059Z,18.10
2022-10-17T06:13:01.445Z,19.73
2022-10-17T06:16:04.965Z,17.95
2022-10-17T06:19:07.275Z,17.95
2022-10-17T06:22:10.871Z,17.77
2022-10-17T06:25:13.298Z,18.83
2022-10-17T06:28:16.610Z,21.83
2022-10-17T06:31:18.994Z,17.92
2022-10-17T06:34:22.082Z,29.63
2022-10-17T06:37:24.953Z,27.17
2022-10-17T06:40:28.417Z,18.50
2022-10-17T06:43:30.901Z,17.45
2022-10-17T06:46:33.703Z,20.95
2022-10-17T06:49:36.085Z,15.95
2022-10-17T06:52:39.537Z,18.77
2022-10-17T06:55:44.056Z,20.60
2022-10-17T06:58:49.927Z,28.08
2022-10-17T07:01:53.819Z,19.73
2022-10-17T07:04:58.849Z,19.12
2022-10-17T07:08:01.175Z,19.35
2022-10-17T07:11:16.749Z,17.40
2022-10-17T07:14:19.202Z,17.37
2022-10-17T07:17:21.895Z,24.43
2022-10-17T07:20:25.013Z,18.25
2022-10-17T07:23:27.721Z,22.40
2022-10-17T07:26:30.171Z,24.57
2022-10-17T07:29:33.078Z,25.70
2022-10-17T07:32:35.496Z,20.40
2022-10-17T07:35:41.150Z,26.30
2022-10-17T07:38:43.889Z,20.70
2022-10-17T07:41:50.418Z,26.45
2022-10-17T07:44:53.376Z,22.60
2022-10-17T07:47:59.070Z,21.58
2022-10-17T07:51:03.593Z,18.42
2022-10-17T07:54:06.589Z,18.87
2022-10-17T07:57:09.614Z,18.10
2022-10-17T08:00:14.281Z,21.85
2022-10-17T08:03:16.974Z,18.23
2022-10-17T08:06:19.430Z,21.83
2022-10-17T08:09:22.400Z,19.10
2022-10-17T08:12:25.992Z,19.62
2022-10-17T08:15:31.724Z,18.50
2022-10-17T08:18:35.722Z,18.67
2022-10-17T08:21:38.735Z,20.75
2022-10-17T08:24:42.754Z,16.58
2022-10-17T08:27:45.527Z,22.67
2022-10-17T08:30:48.082Z,25.57
2022-10-17T08:33:51.025Z,26.23
2022-10-17T08:36:53.418Z,22.10
2022-10-17T08:39:56.122Z,21.48
2022-10-17T08:43:12.196Z,22.70
2022-10-17T08:49:38.279Z,19.90
2022-10-17T08:53:11.246Z,21.92
2022-10-17T08:56:43.926Z,22.83
2022-10-17T08:59:54.211Z,19.98
2022-10-17T09:03:22.608Z,21.02
2022-10-17T09:06:33.616Z,21.30
2022-10-17T09:10:09.481Z,19.98
2022-10-17T09:16:47.754Z,19.58
2022-10-17T09:20:12.254Z,20.95
2022-10-17T09:23:27.878Z,25.37
2022-10-17T09:26:30.685Z,22.10
2022-10-17T09:29:37.905Z,17.30
2022-10-17T09:32:43.065Z,15.68
2022-10-17T09:35:46.805Z,16.85
2022-10-17T09:38:55.207Z,15.13
2022-10-17T09:42:00.546Z,15.45
2022-10-17T09:45:13.953Z,16.67
2022-10-17T09:48:17.071Z,16.10
2022-10-17T09:51:25.846Z,14.05
2022-10-17T09:54:52.719Z,11.85
2022-10-17T09:58:04.490Z,15.93
2022-10-17T10:01:24.397Z,13.77
2022-10-17T10:04:30.565Z,15.05
2022-10-17T10:07:39.841Z,17.52
2022-10-17T10:13:48.334Z,13.23
2022-10-17T10:16:53.727Z,12.13
2022-10-17T10:19:56.436Z,11.27
2022-10-17T10:23:13.533Z,11.63
2022-10-17T10:26:26.154Z,10.65
2022-10-17T10:29:31.140Z,9.73
2022-10-17T10:32:36.680Z,9.32
2022-10-17T10:35:39.528Z,10.23
2022-10-17T10:38:42.513Z,15.43
2022-10-17T10:41:48.740Z,8.68
2022-10-17T10:44:52.792Z,11.77
2022-10-17T10:47:58.871Z,10.15
2022-10-17T10:51:16.318Z,10.95
2022-10-17T10:54:26.528Z,14.75
2022-10-17T10:57:33.327Z,9.60
2022-10-17T11:00:39.138Z,11.68
2022-10-17T11:03:50.974Z,15.43
2022-10-17T11:07:04.890Z,11.63
2022-10-17T11:10:49.630Z,9.40
2022-10-17T11:14:03.460Z,9.30
2022-10-17T11:17:12.103Z,11.57
2022-10-17T11:20:27.154Z,11.82
2022-10-17T11:23:41.486Z,9.85
2022-10-17T11:26:55.414Z,8.52
2022-10-17T11:29:58.549Z,9.73
2022-10-17T11:33:03.460Z,14.05
2022-10-17T11:36:07.976Z,8.70
2022-10-17T11:39:18.468Z,8.30
2022-10-17T11:42:35.665Z,11.48
2022-10-17T11:45:46.233Z,9.43
2022-10-17T11:49:08.841Z,7.53
2022-10-17T11:52:31.574Z,10.98
2022-10-17T11:55:41.892Z,7.57
2022-10-17T11:59:02.029Z,7.90
2022-10-17T12:02:11.732Z,9.18
2022-10-17T12:05:49.270Z,10.23
2022-10-17T12:09:07.471Z,12.27
2022-10-17T12:12:10.099Z,8.52
2022-10-17T12:15:24.598Z,7.97
2022-10-17T12:18:27.611Z,13.82
2022-10-17T12:22:00.256Z,10.63
2022-10-17T12:25:04.272Z,7.90
2022-10-17T12:28:06.415Z,10.32
2022-10-17T12:31:23.120Z,7.57
2022-10-17T12:34:25.527Z,6.00
2022-10-17T12:37:43.440Z,7.55
2022-10-17T12:40:49.100Z,9.25
2022-10-17T12:43:53.474Z,8.40
2022-10-17T12:47:05.164Z,12.00
2022-10-17T12:50:47.950Z,8.53
2022-10-17T12:53:58.533Z,8.70
2022-10-17T12:57:01.129Z,7.50
2022-10-17T13:00:27.536Z,8.63
2022-10-17T13:03:42.372Z,7.45
2022-10-17T13:06:53.313Z,9.38
2022-10-17T13:09:56.307Z,7.40
2022-10-17T13:13:06.597Z,7.85
2022-10-17T13:16:09.679Z,7.18
2022-10-17T13:19:19.781Z,8.80
2022-10-17T13:22:28.670Z,9.00
2022-10-17T13:25:31.390Z,9.18
2022-10-17T13:28:39.066Z,6.90
2022-10-17T13:31:44.444Z,9.55
2022-10-17T13:34:47.098Z,9.45
2022-10-17T13:37:53.948Z,8.82
2022-10-17T13:41:05.833Z,7.37
2022-10-17T13:44:20.994Z,10.85
2022-10-17T13:47:27.664Z,10.40
2022-10-17T13:50:44.816Z,12.00
2022-10-17T13:53:47.822Z,8.40
2022-10-17T13:56:57.061Z,9.95
2022-10-17T14:00:10.100Z,8.93
2022-10-17T14:03:15.100Z,8.18
2022-10-17T14:06:23.567Z,9.68
2022-10-17T14:09:29.536Z,11.93
2022-10-17T14:12:33.841Z,12.73
2022-10-17T14:15:37.235Z,11.07
2022-10-17T14:18:40.671Z,11.40
2022-10-17T14:24:53.226Z,8.02
2022-10-17T14:28:03.476Z,6.90
2022-10-17T14:31:11.204Z,11.77
2022-10-17T14:34:27.703Z,8.88
2022-10-17T14:37:44.892Z,7.65
2022-10-17T14:40:52.779Z,10.85
2022-10-17T14:44:02.316Z,8.68
2022-10-17T14:47:38.077Z,11.60
2022-10-17T14:50:32.900Z,7.40
2022-10-17T14:53:36.196Z,7.82
2022-10-17T14:56:43.307Z,7.43
2022-10-17T14:59:54.566Z,9.32
2022-10-17T15:02:57.928Z,10.13
2022-10-17T15:06:17.356Z,7.93
2022-10-17T15:09:19.998Z,14.15
2022-10-17T15:12:25.057Z,13.73
2022-10-17T15:15:31.805Z,14.87
2022-10-17T15:18:34.060Z,9.32
2022-10-17T15:21:40.771Z,10.48
2022-10-17T15:24:47.424Z,10.07
2022-10-17T15:30:52.550Z,9.85
2022-10-17T15:33:55.405Z,12.45
2022-10-17T15:36:58.713Z,10.93
2022-10-17T15:40:01.634Z,12.55
2022-10-17T15:43:04.040Z,11.15
2022-10-17T15:46:13.297Z,11.12
2022-10-17T15:49:18.585Z,10.10
2022-10-17T15:52:22.474Z,9.88
2022-10-17T15:55:24.973Z,11.38
2022-10-17T15:58:35.125Z,12.60
